sensor_id;sensor_type;location;lat;lon;timestamp;P1;durP1;ratioP1;P2;durP2;ratioP2
70165;SDS011;57541;47.408;18.822;2023-06-24T00:00:30;14.95;;;8.25;;
70165;SDS011;57541;47.408;18.822;2023-06-24T00:01:02;15.65;;;8.95;;
70165;SDS011;57541;47.408;18.822;2023-06-24T00:01:33;13.40;;;8.88;;
70165;SDS011;57541;47.408;18.822;2023-06-24T00:02:05;14.05;;;8.95;;
70165;SDS011;57541;47.408;18.822;2023-06-24T00:02:37;15.18;;;8.63;;
70165;SDS011;57541;47.408;18.822;2023-06-24T00:03:09;13.30;;;8.67;;
70165;SDS011;57541;47.408;18.822;2023-06-24T00:03:41;15.23;;;8.93;;
70165;SDS011;57541;47.408;18.822;2023-06-24T00:04:18;16.58;;;9.18;;
70165;SDS011;57541;47.408;18.822;2023-06-24T00:04:52;13.50;;;8.32;;
70165;SDS011;57541;47.408;18.822;2023-06-24T00:05:23;16.08;;;8.50;;
70165;SDS011;57541;47.408;18.822;2023-06-24T00:05:55;13.48;;;8.57;;
70165;SDS011;57541;47.408;18.822;2023-06-24T00:06:28;14.02;;;8.68;;
70165;SDS011;57541;47.408;18.822;2023-06-24T00:07:00;16.05;;;8.75;;
70165;SDS011;57541;47.408;18.822;2023-06-24T00:07:32;13.95;;;8.60;;
70165;SDS011;57541;47.408;18.822;2023-06-24T00:08:07;14.43;;;9.20;;
70165;SDS011;57541;47.408;18.822;2023-06-24T00:08:39;14.40;;;8.97;;
70165;SDS011;57541;47.408;18.822;2023-06-24T00:09:11;12.82;;;7.80;;
70165;SDS011;57541;47.408;18.822;2023-06-24T00:09:43;15.38;;;8.43;;
70165;SDS011;57541;47.408;18.822;2023-06-24T00:10:15;15.25;;;8.88;;
70165;SDS011;57541;47.408;18.822;2023-06-24T00:10:48;16.50;;;8.48;;
70165;SDS011;57541;47.408;18.822;2023-06-24T00:11:20;15.20;;;8.77;;
70165;SDS011;57541;47.408;18.822;2023-06-24T00:11:51;12.43;;;7.95;;
70165;SDS011;57541;47.408;18.822;2023-06-24T00:12:23;13.85;;;8.35;;
70165;SDS011;57541;47.408;18.822;2023-06-24T00:12:55;15.73;;;8.63;;
70165;SDS011;57541;47.408;18.822;2023-06-24T00:13:27;13.73;;;8.20;;
70165;SDS011;57541;47.408;18.822;2023-06-24T00:14:00;14.50;;;8.57;;
70165;SDS011;57541;47.408;18.822;2023-06-24T00:14:31;14.38;;;8.48;;
70165;SDS011;57541;47.408;18.822;2023-06-24T00:15:03;13.57;;;8.07;;
70165;SDS011;57541;47.408;18.822;2023-06-24T00:15:35;13.73;;;8.32;;
70165;SDS011;57541;47.408;18.822;2023-06-24T00:16:07;12.98;;;7.93;;
70165;SDS011;57541;47.408;18.822;2023-06-24T00:16:39;14.73;;;8.70;;
70165;SDS011;57541;47.408;18.822;2023-06-24T00:17:13;14.95;;;7.90;;
70165;SDS011;57541;47.408;18.822;2023-06-24T00:17:45;13.88;;;8.82;;
70165;SDS011;57541;47.408;18.822;2023-06-24T00:18:16;13.48;;;8.73;;
70165;SDS011;57541;47.408;18.822;2023-06-24T00:18:48;14.52;;;8.10;;
70165;SDS011;57541;47.408;18.822;2023-06-24T00:19:20;13.73;;;8.33;;
70165;SDS011;57541;47.408;18.822;2023-06-24T00:19:53;12.75;;;7.88;;
70165;SDS011;57541;47.408;18.822;2023-06-24T00:20:26;13.75;;;8.48;;
70165;SDS011;57541;47.408;18.822;2023-06-24T00:20:57;15.88;;;8.10;;
70165;SDS011;57541;47.408;18.822;2023-06-24T00:21:29;14.15;;;7.95;;
70165;SDS011;57541;47.408;18.822;2023-06-24T00:22:01;13.30;;;8.40;;
70165;SDS011;57541;47.408;18.822;2023-06-24T00:22:35;12.02;;;7.72;;
70165;SDS011;57541;47.408;18.822;2023-06-24T00:23:06;12.05;;;7.50;;
70165;SDS011;57541;47.408;18.822;2023-06-24T00:23:38;15.90;;;8.55;;
70165;SDS011;57541;47.408;18.822;2023-06-24T00:24:10;13.20;;;7.97;;
70165;SDS011;57541;47.408;18.822;2023-06-24T00:24:41;15.63;;;8.97;;
70165;SDS011;57541;47.408;18.822;2023-06-24T00:25:14;13.15;;;8.18;;
70165;SDS011;57541;47.408;18.822;2023-06-24T00:25:46;13.93;;;8.35;;
70165;SDS011;57541;47.408;18.822;2023-06-24T00:26:18;12.50;;;7.95;;
70165;SDS011;57541;47.408;18.822;2023-06-24T00:26:49;13.38;;;8.30;;
70165;SDS011;57541;47.408;18.822;2023-06-24T00:27:22;11.80;;;7.93;;
70165;SDS011;57541;47.408;18.822;2023-06-24T00:27:53;14.05;;;8.00;;
70165;SDS011;57541;47.408;18.822;2023-06-24T00:28:25;14.05;;;8.10;;
70165;SDS011;57541;47.408;18.822;2023-06-24T00:28:57;14.07;;;8.27;;
70165;SDS011;57541;47.408;18.822;2023-06-24T00:29:30;15.27;;;8.00;;
70165;SDS011;57541;47.408;18.822;2023-06-24T00:30:01;14.10;;;8.30;;
70165;SDS011;57541;47.408;18.822;2023-06-24T00:30:33;12.07;;;7.88;;
70165;SDS011;57541;47.408;18.822;2023-06-24T00:31:05;17.75;;;8.43;;
70165;SDS011;57541;47.408;18.822;2023-06-24T00:31:37;12.85;;;7.57;;
70165;SDS011;57541;47.408;18.822;2023-06-24T00:32:09;15.98;;;8.23;;
70165;SDS011;57541;47.408;18.822;2023-06-24T00:32:40;12.80;;;8.23;;
70165;SDS011;57541;47.408;18.822;2023-06-24T00:33:12;17.77;;;7.88;;
70165;SDS011;57541;47.408;18.822;2023-06-24T00:33:44;12.88;;;7.85;;
70165;SDS011;57541;47.408;18.822;2023-06-24T00:34:16;14.27;;;7.80;;
70165;SDS011;57541;47.408;18.822;2023-06-24T00:34:51;13.18;;;7.78;;
70165;SDS011;57541;47.408;18.822;2023-06-24T00:35:23;13.13;;;7.27;;
70165;SDS011;57541;47.408;18.822;2023-06-24T00:35:54;11.07;;;7.05;;
70165;SDS011;57541;47.408;18.822;2023-06-24T00:36:28;14.40;;;7.65;;
70165;SDS011;57541;47.408;18.822;2023-06-24T00:36:59;13.88;;;8.63;;
70165;SDS011;57541;47.408;18.822;2023-06-24T00:37:33;13.30;;;7.40;;
70165;SDS011;57541;47.408;18.822;2023-06-24T00:38:05;15.73;;;7.75;;
70165;SDS011;57541;47.408;18.822;2023-06-24T00:38:37;12.57;;;7.47;;
70165;SDS011;57541;47.408;18.822;2023-06-24T00:39:09;13.38;;;7.70;;
70165;SDS011;57541;47.408;18.822;2023-06-24T00:39:41;14.35;;;8.07;;
70165;SDS011;57541;47.408;18.822;2023-06-24T00:40:13;14.25;;;7.50;;
70165;SDS011;57541;47.408;18.822;2023-06-24T00:40:46;12.00;;;7.67;;
70165;SDS011;57541;47.408;18.822;2023-06-24T00:41:18;12.20;;;7.25;;
70165;SDS011;57541;47.408;18.822;2023-06-24T00:41:50;12.32;;;8.27;;
70165;SDS011;57541;47.408;18.822;2023-06-24T00:42:22;13.15;;;7.45;;
70165;SDS011;57541;47.408;18.822;2023-06-24T00:42:54;12.27;;;7.45;;
70165;SDS011;57541;47.408;18.822;2023-06-24T00:43:26;12.93;;;7.05;;
70165;SDS011;57541;47.408;18.822;2023-06-24T00:43:58;10.95;;;7.20;;
70165;SDS011;57541;47.408;18.822;2023-06-24T00:44:30;14.57;;;8.05;;
70165;SDS011;57541;47.408;18.822;2023-06-24T00:45:01;11.73;;;7.20;;
70165;SDS011;57541;47.408;18.822;2023-06-24T00:45:35;11.48;;;7.45;;
70165;SDS011;57541;47.408;18.822;2023-06-24T00:46:08;11.83;;;7.27;;
70165;SDS011;57541;47.408;18.822;2023-06-24T00:46:39;11.70;;;7.25;;
70165;SDS011;57541;47.408;18.822;2023-06-24T00:47:11;13.93;;;7.50;;
70165;SDS011;57541;47.408;18.822;2023-06-24T00:47:43;14.32;;;7.97;;
70165;SDS011;57541;47.408;18.822;2023-06-24T00:48:15;11.98;;;7.80;;
70165;SDS011;57541;47.408;18.822;2023-06-24T00:48:47;13.52;;;7.38;;
70165;SDS011;57541;47.408;18.822;2023-06-24T00:49:19;12.85;;;7.70;;
70165;SDS011;57541;47.408;18.822;2023-06-24T00:49:50;12.07;;;7.20;;
70165;SDS011;57541;47.408;18.822;2023-06-24T00:50:22;12.77;;;7.50;;
70165;SDS011;57541;47.408;18.822;2023-06-24T00:50:54;11.70;;;7.07;;
70165;SDS011;57541;47.408;18.822;2023-06-24T00:51:25;10.70;;;7.10;;
70165;SDS011;57541;47.408;18.822;2023-06-24T00:52:05;13.13;;;6.82;;
70165;SDS011;57541;47.408;18.822;2023-06-24T00:52:38;12.43;;;7.28;;
70165;SDS011;57541;47.408;18.822;2023-06-24T00:53:14;11.15;;;6.63;;
70165;SDS011;57541;47.408;18.822;2023-06-24T00:53:45;12.18;;;7.18;;
70165;SDS011;57541;47.408;18.822;2023-06-24T00:54:19;10.80;;;6.20;;
70165;SDS011;57541;47.408;18.822;2023-06-24T00:54:50;11.27;;;6.10;;
70165;SDS011;57541;47.408;18.822;2023-06-24T00:55:22;11.98;;;6.50;;
70165;SDS011;57541;47.408;18.822;2023-06-24T00:55:55;11.25;;;6.65;;
70165;SDS011;57541;47.408;18.822;2023-06-24T00:56:34;13.23;;;6.30;;
70165;SDS011;57541;47.408;18.822;2023-06-24T00:57:09;11.87;;;6.40;;
70165;SDS011;57541;47.408;18.822;2023-06-24T00:57:42;9.95;;;5.95;;
70165;SDS011;57541;47.408;18.822;2023-06-24T00:58:16;10.45;;;5.57;;
70165;SDS011;57541;47.408;18.822;2023-06-24T00:58:48;11.95;;;6.32;;
70165;SDS011;57541;47.408;18.822;2023-06-24T00:59:21;10.05;;;5.97;;
70165;SDS011;57541;47.408;18.822;2023-06-24T00:59:54;10.02;;;5.85;;
70165;SDS011;57541;47.408;18.822;2023-06-24T01:00:27;10.60;;;6.18;;
70165;SDS011;57541;47.408;18.822;2023-06-24T01:00:59;11.02;;;6.28;;
70165;SDS011;57541;47.408;18.822;2023-06-24T01:01:33;10.65;;;6.20;;
70165;SDS011;57541;47.408;18.822;2023-06-24T01:02:06;10.98;;;6.13;;
70165;SDS011;57541;47.408;18.822;2023-06-24T01:02:39;10.77;;;6.07;;
70165;SDS011;57541;47.408;18.822;2023-06-24T01:03:13;10.10;;;5.97;;
70165;SDS011;57541;47.408;18.822;2023-06-24T01:03:46;10.77;;;6.55;;
70165;SDS011;57541;47.408;18.822;2023-06-24T01:04:18;13.07;;;6.13;;
70165;SDS011;57541;47.408;18.822;2023-06-24T01:04:51;11.18;;;5.93;;
70165;SDS011;57541;47.408;18.822;2023-06-24T01:05:23;10.27;;;5.57;;
70165;SDS011;57541;47.408;18.822;2023-06-24T01:05:56;10.40;;;6.07;;
70165;SDS011;57541;47.408;18.822;2023-06-24T01:06:28;9.18;;;5.60;;
70165;SDS011;57541;47.408;18.822;2023-06-24T01:07:01;11.10;;;6.38;;
70165;SDS011;57541;47.408;18.822;2023-06-24T01:07:33;11.80;;;5.93;;
70165;SDS011;57541;47.408;18.822;2023-06-24T01:08:07;11.50;;;5.80;;
70165;SDS011;57541;47.408;18.822;2023-06-24T01:08:38;10.95;;;6.07;;
70165;SDS011;57541;47.408;18.822;2023-06-24T01:09:10;8.57;;;5.60;;
70165;SDS011;57541;47.408;18.822;2023-06-24T01:09:42;12.80;;;5.65;;
70165;SDS011;57541;47.408;18.822;2023-06-24T01:10:14;10.43;;;5.30;;
70165;SDS011;57541;47.408;18.822;2023-06-24T01:10:45;10.07;;;6.07;;
70165;SDS011;57541;47.408;18.822;2023-06-24T01:11:17;10.00;;;5.60;;
70165;SDS011;57541;47.408;18.822;2023-06-24T01:11:49;10.20;;;5.40;;
70165;SDS011;57541;47.408;18.822;2023-06-24T01:12:21;12.10;;;6.13;;
70165;SDS011;57541;47.408;18.822;2023-06-24T01:12:53;10.15;;;5.32;;
70165;SDS011;57541;47.408;18.822;2023-06-24T01:13:24;9.37;;;5.63;;
70165;SDS011;57541;47.408;18.822;2023-06-24T01:13:56;10.10;;;5.22;;
70165;SDS011;57541;47.408;18.822;2023-06-24T01:14:28;10.38;;;5.45;;
70165;SDS011;57541;47.408;18.822;2023-06-24T01:15:00;10.52;;;5.47;;
70165;SDS011;57541;47.408;18.822;2023-06-24T01:15:33;9.57;;;5.57;;
70165;SDS011;57541;47.408;18.822;2023-06-24T01:16:08;9.75;;;5.07;;
70165;SDS011;57541;47.408;18.822;2023-06-24T01:18:46;9.45;;;5.05;;
70165;SDS011;57541;47.408;18.822;2023-06-24T01:20:31;9.70;;;5.13;;
70165;SDS011;57541;47.408;18.822;2023-06-24T01:21:21;11.35;;;5.25;;
70165;SDS011;57541;47.408;18.822;2023-06-24T01:24:31;10.35;;;5.30;;
70165;SDS011;57541;47.408;18.822;2023-06-24T01:30:00;8.98;;;4.50;;
70165;SDS011;57541;47.408;18.822;2023-06-24T01:32:40;9.80;;;4.95;;
70165;SDS011;57541;47.408;18.822;2023-06-24T01:33:21;8.60;;;4.95;;
70165;SDS011;57541;47.408;18.822;2023-06-24T01:34:57;9.60;;;4.85;;
70165;SDS011;57541;47.408;18.822;2023-06-24T01:35:32;12.80;;;4.57;;
70165;SDS011;57541;47.408;18.822;2023-06-24T01:36:07;8.40;;;4.90;;
70165;SDS011;57541;47.408;18.822;2023-06-24T01:36:43;13.10;;;5.43;;
70165;SDS011;57541;47.408;18.822;2023-06-24T01:37:42;9.60;;;4.93;;
70165;SDS011;57541;47.408;18.822;2023-06-24T01:38:22;12.60;;;5.30;;
70165;SDS011;57541;47.408;18.822;2023-06-24T01:39:16;8.90;;;5.00;;
70165;SDS011;57541;47.408;18.822;2023-06-24T01:39:55;10.05;;;5.18;;
70165;SDS011;57541;47.408;18.822;2023-06-24T01:40:36;8.52;;;5.10;;
70165;SDS011;57541;47.408;18.822;2023-06-24T01:41:12;12.10;;;5.15;;
70165;SDS011;57541;47.408;18.822;2023-06-24T01:41:49;9.15;;;4.63;;
70165;SDS011;57541;47.408;18.822;2023-06-24T01:42:30;9.43;;;5.40;;
70165;SDS011;57541;47.408;18.822;2023-06-24T01:43:03;8.80;;;4.88;;
70165;SDS011;57541;47.408;18.822;2023-06-24T01:43:36;10.50;;;5.38;;
70165;SDS011;57541;47.408;18.822;2023-06-24T01:44:09;10.95;;;5.85;;
70165;SDS011;57541;47.408;18.822;2023-06-24T01:44:45;9.27;;;5.33;;
70165;SDS011;57541;47.408;18.822;2023-06-24T01:45:21;10.77;;;4.82;;
70165;SDS011;57541;47.408;18.822;2023-06-24T01:45:54;8.23;;;5.03;;
70165;SDS011;57541;47.408;18.822;2023-06-24T01:46:28;9.10;;;5.10;;
70165;SDS011;57541;47.408;18.822;2023-06-24T01:47:01;9.63;;;4.93;;
70165;SDS011;57541;47.408;18.822;2023-06-24T01:47:36;9.45;;;5.10;;
70165;SDS011;57541;47.408;18.822;2023-06-24T01:48:13;9.57;;;5.38;;
70165;SDS011;57541;47.408;18.822;2023-06-24T01:48:47;10.02;;;4.68;;
70165;SDS011;57541;47.408;18.822;2023-06-24T01:49:23;9.35;;;5.53;;
70165;SDS011;57541;47.408;18.822;2023-06-24T01:49:59;8.93;;;4.45;;
70165;SDS011;57541;47.408;18.822;2023-06-24T01:50:34;11.53;;;4.97;;
70165;SDS011;57541;47.408;18.822;2023-06-24T01:51:10;11.80;;;5.15;;
70165;SDS011;57541;47.408;18.822;2023-06-24T01:51:44;9.90;;;5.13;;
70165;SDS011;57541;47.408;18.822;2023-06-24T01:52:18;9.20;;;5.05;;
70165;SDS011;57541;47.408;18.822;2023-06-24T01:52:54;9.93;;;5.20;;
70165;SDS011;57541;47.408;18.822;2023-06-24T01:53:27;8.10;;;5.38;;
70165;SDS011;57541;47.408;18.822;2023-06-24T01:54:01;11.38;;;5.43;;
70165;SDS011;57541;47.408;18.822;2023-06-24T01:54:36;9.10;;;5.50;;
70165;SDS011;57541;47.408;18.822;2023-06-24T01:55:11;10.15;;;5.47;;
70165;SDS011;57541;47.408;18.822;2023-06-24T01:55:46;9.95;;;5.30;;
70165;SDS011;57541;47.408;18.822;2023-06-24T01:56:22;9.70;;;5.43;;
70165;SDS011;57541;47.408;18.822;2023-06-24T01:56:57;9.07;;;5.50;;
70165;SDS011;57541;47.408;18.822;2023-06-24T01:57:31;12.07;;;5.90;;
70165;SDS011;57541;47.408;18.822;2023-06-24T01:58:04;10.27;;;5.72;;
70165;SDS011;57541;47.408;18.822;2023-06-24T01:58:37;12.55;;;5.90;;
70165;SDS011;57541;47.408;18.822;2023-06-24T01:59:11;10.65;;;5.55;;
70165;SDS011;57541;47.408;18.822;2023-06-24T01:59:45;8.73;;;5.30;;
70165;SDS011;57541;47.408;18.822;2023-06-24T02:00:18;11.57;;;6.00;;
70165;SDS011;57541;47.408;18.822;2023-06-24T02:00:51;12.43;;;6.65;;
70165;SDS011;57541;47.408;18.822;2023-06-24T02:01:23;9.75;;;5.82;;
70165;SDS011;57541;47.408;18.822;2023-06-24T02:01:56;10.20;;;5.93;;
70165;SDS011;57541;47.408;18.822;2023-06-24T02:02:29;12.05;;;6.00;;
70165;SDS011;57541;47.408;18.822;2023-06-24T02:03:02;10.40;;;5.70;;
70165;SDS011;57541;47.408;18.822;2023-06-24T02:03:35;8.73;;;5.40;;
70165;SDS011;57541;47.408;18.822;2023-06-24T02:04:08;11.00;;;5.43;;
70165;SDS011;57541;47.408;18.822;2023-06-24T02:04:41;9.00;;;5.38;;
70165;SDS011;57541;47.408;18.822;2023-06-24T02:05:14;13.55;;;5.55;;
70165;SDS011;57541;47.408;18.822;2023-06-24T02:05:48;10.07;;;5.47;;
70165;SDS011;57541;47.408;18.822;2023-06-24T02:06:21;10.95;;;5.95;;
70165;SDS011;57541;47.408;18.822;2023-06-24T02:06:55;11.88;;;6.00;;
70165;SDS011;57541;47.408;18.822;2023-06-24T02:07:27;11.47;;;5.87;;
70165;SDS011;57541;47.408;18.822;2023-06-24T02:08:01;9.82;;;5.40;;
70165;SDS011;57541;47.408;18.822;2023-06-24T02:08:35;9.68;;;5.90;;
70165;SDS011;57541;47.408;18.822;2023-06-24T02:09:08;10.25;;;5.82;;
70165;SDS011;57541;47.408;18.822;2023-06-24T02:09:42;11.15;;;6.10;;
70165;SDS011;57541;47.408;18.822;2023-06-24T02:10:15;13.38;;;5.57;;
70165;SDS011;57541;47.408;18.822;2023-06-24T02:10:48;9.90;;;5.32;;
70165;SDS011;57541;47.408;18.822;2023-06-24T02:11:22;10.55;;;5.82;;
70165;SDS011;57541;47.408;18.822;2023-06-24T02:11:56;12.70;;;6.20;;
70165;SDS011;57541;47.408;18.822;2023-06-24T02:12:29;9.15;;;5.25;;
70165;SDS011;57541;47.408;18.822;2023-06-24T02:13:02;13.10;;;5.63;;
70165;SDS011;57541;47.408;18.822;2023-06-24T02:13:35;9.13;;;5.57;;
70165;SDS011;57541;47.408;18.822;2023-06-24T02:14:08;10.10;;;5.45;;
70165;SDS011;57541;47.408;18.822;2023-06-24T02:14:41;11.63;;;5.75;;
70165;SDS011;57541;47.408;18.822;2023-06-24T02:15:14;10.60;;;5.85;;
70165;SDS011;57541;47.408;18.822;2023-06-24T02:15:47;10.13;;;5.97;;
70165;SDS011;57541;47.408;18.822;2023-06-24T02:16:21;12.20;;;6.03;;
70165;SDS011;57541;47.408;18.822;2023-06-24T02:16:54;10.60;;;5.90;;
70165;SDS011;57541;47.408;18.822;2023-06-24T02:17:28;12.18;;;5.72;;
70165;SDS011;57541;47.408;18.822;2023-06-24T02:18:01;9.45;;;5.05;;
70165;SDS011;57541;47.408;18.822;2023-06-24T02:18:35;11.30;;;6.00;;
70165;SDS011;57541;47.408;18.822;2023-06-24T02:19:09;10.02;;;5.78;;
70165;SDS011;57541;47.408;18.822;2023-06-24T02:19:42;11.13;;;6.35;;
70165;SDS011;57541;47.408;18.822;2023-06-24T02:20:15;10.65;;;5.30;;
70165;SDS011;57541;47.408;18.822;2023-06-24T02:20:48;9.68;;;5.35;;
70165;SDS011;57541;47.408;18.822;2023-06-24T02:21:21;11.27;;;6.10;;
70165;SDS011;57541;47.408;18.822;2023-06-24T02:21:58;12.38;;;5.57;;
70165;SDS011;57541;47.408;18.822;2023-06-24T02:22:31;9.88;;;5.50;;
70165;SDS011;57541;47.408;18.822;2023-06-24T02:23:03;11.32;;;6.03;;
70165;SDS011;57541;47.408;18.822;2023-06-24T02:23:36;10.82;;;5.75;;
70165;SDS011;57541;47.408;18.822;2023-06-24T02:24:08;11.13;;;6.23;;
70165;SDS011;57541;47.408;18.822;2023-06-24T02:24:41;10.35;;;6.38;;
70165;SDS011;57541;47.408;18.822;2023-06-24T02:25:14;9.88;;;6.03;;
70165;SDS011;57541;47.408;18.822;2023-06-24T02:25:46;10.73;;;5.75;;
70165;SDS011;57541;47.408;18.822;2023-06-24T02:26:18;10.20;;;6.10;;
70165;SDS011;57541;47.408;18.822;2023-06-24T02:26:51;10.75;;;5.78;;
70165;SDS011;57541;47.408;18.822;2023-06-24T02:27:24;11.23;;;5.45;;
70165;SDS011;57541;47.408;18.822;2023-06-24T02:27:56;11.65;;;6.00;;
70165;SDS011;57541;47.408;18.822;2023-06-24T02:28:29;9.60;;;5.20;;
70165;SDS011;57541;47.408;18.822;2023-06-24T02:29:01;11.25;;;5.22;;
70165;SDS011;57541;47.408;18.822;2023-06-24T02:29:33;9.33;;;5.17;;
70165;SDS011;57541;47.408;18.822;2023-06-24T02:30:07;9.05;;;5.00;;
70165;SDS011;57541;47.408;18.822;2023-06-24T02:30:41;10.88;;;5.25;;
70165;SDS011;57541;47.408;18.822;2023-06-24T02:31:14;9.30;;;5.03;;
70165;SDS011;57541;47.408;18.822;2023-06-24T02:31:46;10.23;;;4.47;;
70165;SDS011;57541;47.408;18.822;2023-06-24T02:32:18;9.85;;;4.85;;
70165;SDS011;57541;47.408;18.822;2023-06-24T02:32:50;10.32;;;4.57;;
70165;SDS011;57541;47.408;18.822;2023-06-24T02:33:22;11.57;;;4.68;;
70165;SDS011;57541;47.408;18.822;2023-06-24T02:33:54;9.65;;;4.90;;
70165;SDS011;57541;47.408;18.822;2023-06-24T02:34:26;10.00;;;4.32;;
70165;SDS011;57541;47.408;18.822;2023-06-24T02:34:57;9.43;;;4.80;;
70165;SDS011;57541;47.408;18.822;2023-06-24T02:35:30;9.32;;;4.47;;
70165;SDS011;57541;47.408;18.822;2023-06-24T02:36:02;10.93;;;4.30;;
70165;SDS011;57541;47.408;18.822;2023-06-24T02:36:34;8.15;;;4.45;;
70165;SDS011;57541;47.408;18.822;2023-06-24T02:37:06;10.80;;;4.80;;
70165;SDS011;57541;47.408;18.822;2023-06-24T02:37:38;8.98;;;4.68;;
70165;SDS011;57541;47.408;18.822;2023-06-24T02:38:09;9.30;;;4.35;;
70165;SDS011;57541;47.408;18.822;2023-06-24T02:38:41;9.82;;;4.15;;
70165;SDS011;57541;47.408;18.822;2023-06-24T02:39:13;11.07;;;4.00;;
70165;SDS011;57541;47.408;18.822;2023-06-24T02:39:45;11.50;;;4.68;;
70165;SDS011;57541;47.408;18.822;2023-06-24T02:40:17;7.37;;;4.30;;
70165;SDS011;57541;47.408;18.822;2023-06-24T02:40:49;14.00;;;3.90;;
70165;SDS011;57541;47.408;18.822;2023-06-24T02:41:22;7.75;;;3.78;;
70165;SDS011;57541;47.408;18.822;2023-06-24T02:41:54;8.95;;;4.63;;
70165;SDS011;57541;47.408;18.822;2023-06-24T02:42:26;7.97;;;4.10;;
70165;SDS011;57541;47.408;18.822;2023-06-24T02:42:57;7.25;;;3.42;;
70165;SDS011;57541;47.408;18.822;2023-06-24T02:43:30;10.15;;;4.10;;
70165;SDS011;57541;47.408;18.822;2023-06-24T02:44:02;8.73;;;4.25;;
70165;SDS011;57541;47.408;18.822;2023-06-24T02:44:33;8.55;;;4.22;;
70165;SDS011;57541;47.408;18.822;2023-06-24T02:45:05;7.18;;;4.07;;
70165;SDS011;57541;47.408;18.822;2023-06-24T02:45:38;8.43;;;4.17;;
70165;SDS011;57541;47.408;18.822;2023-06-24T02:46:10;8.55;;;4.15;;
70165;SDS011;57541;47.408;18.822;2023-06-24T02:46:45;7.35;;;3.90;;
70165;SDS011;57541;47.408;18.822;2023-06-24T02:47:19;8.60;;;4.28;;
70165;SDS011;57541;47.408;18.822;2023-06-24T02:47:52;6.95;;;3.50;;
70165;SDS011;57541;47.408;18.822;2023-06-24T02:48:26;6.75;;;4.03;;
70165;SDS011;57541;47.408;18.822;2023-06-24T02:49:01;8.25;;;4.20;;
70165;SDS011;57541;47.408;18.822;2023-06-24T02:49:34;10.30;;;4.10;;
70165;SDS011;57541;47.408;18.822;2023-06-24T02:50:07;8.50;;;3.70;;
70165;SDS011;57541;47.408;18.822;2023-06-24T02:50:40;9.40;;;3.92;;
70165;SDS011;57541;47.408;18.822;2023-06-24T02:51:15;11.10;;;4.20;;
70165;SDS011;57541;47.408;18.822;2023-06-24T02:51:47;8.05;;;3.72;;
70165;SDS011;57541;47.408;18.822;2023-06-24T02:52:19;8.35;;;3.90;;
70165;SDS011;57541;47.408;18.822;2023-06-24T02:52:51;7.07;;;3.70;;
70165;SDS011;57541;47.408;18.822;2023-06-24T02:53:23;9.95;;;4.32;;
70165;SDS011;57541;47.408;18.822;2023-06-24T02:53:56;7.72;;;3.60;;
70165;SDS011;57541;47.408;18.822;2023-06-24T02:54:29;7.57;;;3.83;;
70165;SDS011;57541;47.408;18.822;2023-06-24T02:55:01;9.07;;;4.00;;
70165;SDS011;57541;47.408;18.822;2023-06-24T02:55:33;7.55;;;3.60;;
70165;SDS011;57541;47.408;18.822;2023-06-24T02:56:06;9.07;;;3.42;;
70165;SDS011;57541;47.408;18.822;2023-06-24T02:56:39;7.27;;;4.13;;
70165;SDS011;57541;47.408;18.822;2023-06-24T02:57:13;7.63;;;3.72;;
70165;SDS011;57541;47.408;18.822;2023-06-24T02:57:47;8.43;;;3.53;;
70165;SDS011;57541;47.408;18.822;2023-06-24T02:58:19;8.60;;;3.80;;
70165;SDS011;57541;47.408;18.822;2023-06-24T02:58:51;10.35;;;4.10;;
70165;SDS011;57541;47.408;18.822;2023-06-24T02:59:24;6.68;;;3.05;;
70165;SDS011;57541;47.408;18.822;2023-06-24T02:59:56;6.93;;;3.70;;
70165;SDS011;57541;47.408;18.822;2023-06-24T03:00:27;9.27;;;3.70;;
70165;SDS011;57541;47.408;18.822;2023-06-24T03:01:05;10.40;;;4.18;;
70165;SDS011;57541;47.408;18.822;2023-06-24T03:01:40;7.18;;;3.75;;
70165;SDS011;57541;47.408;18.822;2023-06-24T03:02:16;7.90;;;3.53;;
70165;SDS011;57541;47.408;18.822;2023-06-24T03:02:49;8.88;;;3.63;;
70165;SDS011;57541;47.408;18.822;2023-06-24T03:03:21;8.02;;;3.38;;
70165;SDS011;57541;47.408;18.822;2023-06-24T03:03:54;7.03;;;3.72;;
70165;SDS011;57541;47.408;18.822;2023-06-24T03:04:26;6.88;;;3.40;;
70165;SDS011;57541;47.408;18.822;2023-06-24T03:04:59;8.25;;;3.92;;
70165;SDS011;57541;47.408;18.822;2023-06-24T03:05:34;11.02;;;3.80;;
70165;SDS011;57541;47.408;18.822;2023-06-24T03:06:07;6.57;;;3.25;;
70165;SDS011;57541;47.408;18.822;2023-06-24T03:06:39;7.18;;;3.80;;
70165;SDS011;57541;47.408;18.822;2023-06-24T03:07:11;6.35;;;3.13;;
70165;SDS011;57541;47.408;18.822;2023-06-24T03:07:44;7.63;;;3.40;;
70165;SDS011;57541;47.408;18.822;2023-06-24T03:08:16;8.57;;;3.42;;
70165;SDS011;57541;47.408;18.822;2023-06-24T03:08:49;6.95;;;3.20;;
70165;SDS011;57541;47.408;18.822;2023-06-24T03:09:21;7.97;;;3.53;;
70165;SDS011;57541;47.408;18.822;2023-06-24T03:09:53;11.18;;;3.45;;
70165;SDS011;57541;47.408;18.822;2023-06-24T03:10:24;7.85;;;3.40;;
70165;SDS011;57541;47.408;18.822;2023-06-24T03:10:57;7.78;;;3.95;;
70165;SDS011;57541;47.408;18.822;2023-06-24T03:11:29;7.50;;;3.50;;
70165;SDS011;57541;47.408;18.822;2023-06-24T03:12:01;6.82;;;3.40;;
70165;SDS011;57541;47.408;18.822;2023-06-24T03:12:33;7.18;;;3.80;;
70165;SDS011;57541;47.408;18.822;2023-06-24T03:13:05;11.40;;;3.93;;
70165;SDS011;57541;47.408;18.822;2023-06-24T03:13:36;7.03;;;3.67;;
70165;SDS011;57541;47.408;18.822;2023-06-24T03:14:08;7.00;;;3.35;;
70165;SDS011;57541;47.408;18.822;2023-06-24T03:14:41;10.20;;;3.83;;
70165;SDS011;57541;47.408;18.822;2023-06-24T03:15:13;7.90;;;3.78;;
70165;SDS011;57541;47.408;18.822;2023-06-24T03:15:44;10.63;;;3.78;;
70165;SDS011;57541;47.408;18.822;2023-06-24T03:16:16;9.73;;;4.22;;
70165;SDS011;57541;47.408;18.822;2023-06-24T03:16:48;7.13;;;3.75;;
70165;SDS011;57541;47.408;18.822;2023-06-24T03:17:20;8.73;;;3.50;;
70165;SDS011;57541;47.408;18.822;2023-06-24T03:17:51;7.32;;;3.97;;
70165;SDS011;57541;47.408;18.822;2023-06-24T03:18:23;8.93;;;3.73;;
70165;SDS011;57541;47.408;18.822;2023-06-24T03:18:55;9.20;;;3.65;;
70165;SDS011;57541;47.408;18.822;2023-06-24T03:19:27;7.55;;;3.65;;
70165;SDS011;57541;47.408;18.822;2023-06-24T03:19:58;8.50;;;3.60;;
70165;SDS011;57541;47.408;18.822;2023-06-24T03:20:30;9.32;;;4.20;;
70165;SDS011;57541;47.408;18.822;2023-06-24T03:21:10;9.07;;;4.10;;
70165;SDS011;57541;47.408;18.822;2023-06-24T03:21:41;9.55;;;4.10;;
70165;SDS011;57541;47.408;18.822;2023-06-24T03:22:13;6.55;;;3.70;;
70165;SDS011;57541;47.408;18.822;2023-06-24T03:22:45;7.65;;;3.97;;
70165;SDS011;57541;47.408;18.822;2023-06-24T03:23:17;7.80;;;3.50;;
70165;SDS011;57541;47.408;18.822;2023-06-24T03:23:48;8.10;;;3.60;;
70165;SDS011;57541;47.408;18.822;2023-06-24T03:24:20;8.52;;;3.88;;
70165;SDS011;57541;47.408;18.822;2023-06-24T03:24:52;7.25;;;4.10;;
70165;SDS011;57541;47.408;18.822;2023-06-24T03:25:24;6.60;;;3.35;;
70165;SDS011;57541;47.408;18.822;2023-06-24T03:25:55;6.55;;;3.60;;
70165;SDS011;57541;47.408;18.822;2023-06-24T03:26:31;7.65;;;3.88;;
70165;SDS011;57541;47.408;18.822;2023-06-24T03:27:04;6.57;;;3.40;;
70165;SDS011;57541;47.408;18.822;2023-06-24T03:27:36;9.85;;;3.53;;
70165;SDS011;57541;47.408;18.822;2023-06-24T03:28:08;7.82;;;3.47;;
70165;SDS011;57541;47.408;18.822;2023-06-24T03:28:39;7.07;;;3.75;;